Time;durP1;ratioP1;P1;durP2;ratioP2;P2;SDS_P1;SDS_P2;PMS_P1;PMS_P2;Temp;Humidity;BMP_temperature;BMP_pressure;BME280_temperature;BME280_humidity;BME280_pressure;Samples;Min_cycle;Max_cycle;Signal;HPM_P1;HPM_P2
2021/07/14 00:02:06;;;;;;;4.78;3.75;;;15.60;99.90;;;;;;4960723;28;20019;-96
2021/07/14 00:04:35;;;;;;;7.72;3.83;;;15.50;99.90;;;;;;4959871;28;20060;-94
2021/07/14 00:07:03;;;;;;;10.65;3.33;;;15.40;99.90;;;;;;4960128;28;20023;-95
2021/07/14 00:09:29;;;;;;;7.57;3.20;;;15.40;99.90;;;;;;4963634;28;20066;-96
2021/07/14 00:11:57;;;;;;;4.30;2.70;;;15.30;99.90;;;;;;4962571;28;20063;-95
2021/07/14 00:17:20;;;;;;;6.15;3.38;;;15.30;99.90;;;;;;4975903;28;20090;-96
2021/07/14 00:22:34;;;;;;;7.43;3.60;;;15.20;99.90;;;;;;4983124;28;20046;-96
2021/07/14 00:25:03;;;;;;;4.55;3.28;;;15.20;99.90;;;;;;4965892;28;20035;-96
2021/07/14 00:27:29;;;;;;;6.60;3.58;;;15.10;99.90;;;;;;4962568;28;20065;-95
2021/07/14 00:29:59;;;;;;;10.60;3.90;;;15.10;99.90;;;;;;4957784;28;20034;-95
2021/07/14 00:32:29;;;;;;;8.00;3.65;;;15.10;99.90;;;;;;4964085;28;20023;-96
2021/07/14 00:34:55;;;;;;;5.45;3.28;;;15.10;99.90;;;;;;4959481;28;20073;-96
2021/07/14 00:37:21;;;;;;;5.95;3.33;;;15.10;99.90;;;;;;4958144;28;20027;-94
2021/07/14 00:39:55;;;;;;;4.47;3.40;;;15.10;99.90;;;;;;4957378;28;20030;-95
2021/07/14 00:42:24;;;;;;;8.70;3.40;;;15.00;99.90;;;;;;4956611;28;20030;-94
2021/07/14 00:44:51;;;;;;;7.63;4.15;;;15.00;99.90;;;;;;4957099;28;20031;-93
2021/07/14 00:47:27;;;;;;;6.30;3.88;;;15.00;99.90;;;;;;4957023;28;20086;-93
2021/07/14 00:49:53;;;;;;;7.18;3.38;;;15.00;99.90;;;;;;4956964;28;20031;-94
2021/07/14 00:52:19;;;;;;;6.35;3.53;;;15.00;99.90;;;;;;4956746;28;20152;-94
2021/07/14 00:54:46;;;;;;;7.45;3.80;;;15.00;99.90;;;;;;4957436;28;20034;-93
2021/07/14 00:57:15;;;;;;;6.05;3.63;;;15.00;99.90;;;;;;4960869;28;20129;-94
2021/07/14 00:59:40;;;;;;;6.35;3.90;;;14.90;99.90;;;;;;4960707;28;20034;-95
2021/07/14 01:02:06;;;;;;;5.68;3.92;;;14.90;99.90;;;;;;4960644;28;20401;-94
2021/07/14 01:04:34;;;;;;;5.03;3.72;;;14.90;99.90;;;;;;4963123;28;20043;-93
2021/07/14 01:07:06;;;;;;;7.93;4.15;;;14.90;99.90;;;;;;4961824;28;20118;-94
2021/07/14 01:09:37;;;;;;;6.55;3.83;;;14.90;99.90;;;;;;4961446;28;20027;-96
2021/07/14 01:12:11;;;;;;;7.07;4.05;;;14.80;99.90;;;;;;4961354;28;20023;-95
2021/07/14 01:14:49;;;;;;;7.90;3.67;;;14.80;99.90;;;;;;4961247;28;20022;-94
2021/07/14 01:17:18;;;;;;;9.82;3.97;;;14.80;99.90;;;;;;4961611;28;20026;-93
2021/07/14 01:19:59;;;;;;;5.93;3.75;;;14.70;99.90;;;;;;4961042;28;20034;-94
2021/07/14 01:22:40;;;;;;;;;;;14.70;99.90;;;;;;4961647;28;20023;-95
2021/07/14 01:25:29;;;;;;;10.63;4.50;;;14.70;99.90;;;;;;4961402;28;19985;-94
2021/07/14 01:27:58;;;;;;;5.93;3.88;;;14.60;99.90;;;;;;4961065;28;20038;-94
2021/07/14 01:30:24;;;;;;;7.70;4.00;;;14.50;99.90;;;;;;4960408;28;20054;-95
2021/07/14 01:32:52;;;;;;;7.53;4.03;;;14.50;99.90;;;;;;4960555;28;20031;-93
2021/07/14 01:35:22;;;;;;;8.88;5.03;;;14.50;99.90;;;;;;4960585;28;20039;-94
2021/07/14 01:37:49;;;;;;;6.75;4.40;;;14.40;99.90;;;;;;4960710;28;20023;-94
2021/07/14 01:40:17;;;;;;;8.43;4.80;;;14.30;99.90;;;;;;4960539;28;20053;-94
2021/07/14 01:42:46;;;;;;;7.75;4.90;;;14.30;99.90;;;;;;4960555;28;20037;-95
2021/07/14 01:45:12;;;;;;;11.43;5.40;;;14.30;99.90;;;;;;4960092;28;20035;-94
2021/07/14 01:47:41;;;;;;;10.30;4.78;;;14.20;99.90;;;;;;4960275;28;20023;-93
2021/07/14 01:50:08;;;;;;;8.80;5.15;;;14.20;99.90;;;;;;4960233;28;20026;-93
2021/07/14 01:52:36;;;;;;;8.82;5.18;;;14.20;99.90;;;;;;4960378;28;20039;-95
2021/07/14 01:55:05;;;;;;;8.23;5.28;;;14.10;99.90;;;;;;4960910;28;20155;-94
2021/07/14 01:57:33;;;;;;;7.95;5.32;;;14.10;99.90;;;;;;4960307;28;20035;-95
2021/07/14 02:00:00;;;;;;;8.40;5.70;;;14.10;99.90;;;;;;4961223;28;20027;-96
2021/07/14 02:02:31;;;;;;;10.65;6.45;;;14.10;99.90;;;;;;4963047;28;20209;-96
2021/07/14 02:05:01;;;;;;;11.68;6.82;;;14.10;99.90;;;;;;4961874;28;20034;-96
2021/07/14 02:07:28;;;;;;;8.90;6.20;;;14.10;99.90;;;;;;4960676;28;20031;-94
2021/07/14 02:09:55;;;;;;;9.63;7.25;;;14.00;99.90;;;;;;4960157;28;20026;-96
2021/07/14 02:12:28;;;;;;;11.85;7.53;;;14.00;99.90;;;;;;4960596;28;20027;-95
2021/07/14 02:15:09;;;;;;;16.00;7.38;;;14.00;99.90;;;;;;4968256;28;20051;-96
2021/07/14 02:18:02;;;;;;;12.88;7.35;;;14.00;99.90;;;;;;4977539;28;20030;-95
2021/07/14 02:20:28;;;;;;;12.82;6.75;;;14.00;99.90;;;;;;4975770;28;20019;-96
2021/07/14 02:22:54;;;;;;;14.57;7.68;;;13.90;99.90;;;;;;4964473;28;20101;-96
2021/07/14 02:25:21;;;;;;;11.70;7.38;;;13.90;99.90;;;;;;4963599;28;20031;-95
2021/07/14 02:27:47;;;;;;;12.35;7.97;;;13.90;99.90;;;;;;4962442;28;20027;-95
2021/07/14 02:30:18;;;;;;;13.75;7.68;;;13.90;99.90;;;;;;4962995;28;20026;-96
2021/07/14 02:32:49;;;;;;;12.93;7.15;;;13.90;99.90;;;;;;4963617;28;20045;-96
2021/07/14 02:35:16;;;;;;;12.75;7.70;;;13.90;99.90;;;;;;4967343;28;20034;-95
2021/07/14 02:38:02;;;;;;;15.93;6.75;;;13.90;99.90;;;;;;4970929;28;20070;-96
2021/07/14 02:40:28;;;;;;;18.35;9.50;;;13.90;99.90;;;;;;4973070;28;20030;-95
2021/07/14 02:42:57;;;;;;;12.85;8.65;;;13.90;99.90;;;;;;4966810;28;20045;-95
2021/07/14 02:45:27;;;;;;;15.63;9.10;;;13.90;99.90;;;;;;4979167;28;20033;-96
2021/07/14 02:47:56;;;;;;;12.77;8.25;;;13.90;99.90;;;;;;4983616;28;20041;-96
2021/07/14 02:50:26;;;;;;;14.20;8.55;;;13.90;99.90;;;;;;4983242;28;20051;-96
2021/07/14 02:52:55;;;;;;;12.10;8.23;;;13.90;99.90;;;;;;4978837;28;20023;-96
2021/07/14 02:55:24;;;;;;;11.18;7.30;;;13.90;99.90;;;;;;4968740;28;20034;-95
2021/07/14 02:57:57;;;;;;;13.57;7.50;;;13.90;99.90;;;;;;4967526;28;20119;-96
2021/07/14 03:00:24;;;;;;;16.55;8.93;;;13.90;99.90;;;;;;4968349;28;20037;-96
2021/07/14 03:02:51;;;;;;;11.60;7.93;;;13.90;99.90;;;;;;4965428;28;20053;-96
2021/07/14 03:05:18;;;;;;;10.50;7.10;;;13.90;99.90;;;;;;4966333;28;20030;-95
2021/07/14 03:07:46;;;;;;;13.35;7.60;;;13.90;99.90;;;;;;4962763;28;20026;-96
2021/07/14 03:10:16;;;;;;;17.08;7.28;;;13.90;99.90;;;;;;4962072;28;20033;-96
2021/07/14 03:12:44;;;;;;;11.80;7.95;;;13.90;99.90;;;;;;4961919;28;20042;-95
2021/07/14 03:15:13;;;;;;;11.20;7.30;;;13.90;99.90;;;;;;4962508;28;20031;-96
2021/07/14 03:17:40;;;;;;;12.45;7.38;;;13.90;99.90;;;;;;4964464;28;20110;-96
2021/07/14 03:20:10;;;;;;;13.70;7.07;;;13.90;99.90;;;;;;4980818;28;20051;-95
2021/07/14 03:22:39;;;;;;;11.52;6.22;;;13.90;99.90;;;;;;4961498;28;20031;-96
2021/07/14 03:25:06;;;;;;;12.40;6.22;;;13.80;99.90;;;;;;4961665;28;20046;-96
2021/07/14 03:27:32;;;;;;;11.38;6.25;;;13.90;99.90;;;;;;4961107;28;20031;-94
2021/07/14 03:29:59;;;;;;;10.82;6.00;;;13.80;99.90;;;;;;4962873;28;20130;-96
2021/07/14 03:32:25;;;;;;;6.70;5.18;;;13.80;99.90;;;;;;4962417;28;20114;-95
2021/07/14 03:34:53;;;;;;;7.82;5.28;;;13.80;99.90;;;;;;4965190;28;20031;-95
2021/07/14 03:37:20;;;;;;;6.82;4.97;;;13.80;99.90;;;;;;4960817;28;20073;-95
2021/07/14 03:39:47;;;;;;;7.07;4.93;;;13.80;99.90;;;;;;4960319;28;20114;-95
2021/07/14 03:42:16;;;;;;;7.63;4.32;;;13.80;99.90;;;;;;4960310;28;20027;-96
2021/07/14 03:44:44;;;;;;;8.48;4.68;;;13.80;99.90;;;;;;4961087;28;20049;-96
2021/07/14 03:47:10;;;;;;;7.68;4.30;;;13.80;99.90;;;;;;4959508;28;20034;-96
2021/07/14 03:49:38;;;;;;;5.35;4.30;;;13.80;99.90;;;;;;4959785;28;20593;-95
2021/07/14 03:52:04;;;;;;;8.40;4.57;;;13.80;99.90;;;;;;4959348;28;20595;-95
2021/07/14 03:54:31;;;;;;;12.25;4.65;;;13.80;99.90;;;;;;4960104;28;20027;-95
2021/07/14 03:56:58;;;;;;;9.43;4.75;;;13.80;99.90;;;;;;4959118;28;20054;-95
2021/07/14 03:59:25;;;;;;;7.75;4.93;;;13.80;99.90;;;;;;4959065;28;20546;-93
2021/07/14 04:01:51;;;;;;;9.18;5.32;;;13.80;99.90;;;;;;4958805;28;20045;-95
2021/07/14 04:04:17;;;;;;;8.60;4.72;;;13.80;99.90;;;;;;4958663;28;20085;-95
2021/07/14 04:06:47;;;;;;;9.85;4.65;;;13.80;99.90;;;;;;4959025;28;20050;-95
2021/07/14 04:09:24;;;;;;;8.80;4.47;;;13.80;99.90;;;;;;4958884;28;20027;-94
2021/07/14 04:12:00;;;;;;;8.23;4.75;;;13.80;99.90;;;;;;4959359;28;20081;-96
2021/07/14 04:14:30;;;;;;;9.65;5.30;;;13.80;99.90;;;;;;4959443;28;20101;-95
2021/07/14 04:17:00;;;;;;;9.77;5.47;;;13.80;99.90;;;;;;4964702;28;20027;-96
2021/07/14 04:19:28;;;;;;;10.27;5.85;;;13.80;99.90;;;;;;4979092;28;20091;-94
2021/07/14 04:21:54;;;;;;;7.20;5.07;;;13.80;99.90;;;;;;4958177;28;20054;-94
2021/07/14 04:24:20;;;;;;;8.73;5.15;;;13.80;99.90;;;;;;4957760;28;20035;-94
2021/07/14 04:26:46;;;;;;;7.57;5.40;;;13.80;99.90;;;;;;4958311;28;20089;-95
2021/07/14 04:29:12;;;;;;;7.38;4.90;;;13.80;99.90;;;;;;4958181;28;20026;-94
2021/07/14 04:31:40;;;;;;;8.70;5.18;;;13.80;99.90;;;;;;4958047;28;20066;-95
2021/07/14 04:34:07;;;;;;;9.02;5.55;;;13.80;99.90;;;;;;4958320;28;20035;-95
2021/07/14 04:36:36;;;;;;;9.38;5.57;;;13.80;99.90;;;;;;4958100;28;20027;-95
2021/07/14 04:39:06;;;;;;;9.40;5.20;;;13.80;99.90;;;;;;4957896;28;20058;-94
2021/07/14 04:41:35;;;;;;;10.45;5.72;;;13.80;99.90;;;;;;4957978;28;20023;-95
2021/07/14 04:44:09;;;;;;;6.80;5.15;;;13.80;99.90;;;;;;4957629;28;20519;-94
2021/07/14 04:46:39;;;;;;;6.45;4.53;;;13.80;99.90;;;;;;4957675;28;20019;-96
2021/07/14 04:49:08;;;;;;;7.72;4.55;;;13.80;99.90;;;;;;4958168;28;20031;-95
2021/07/14 04:51:36;;;;;;;6.95;4.43;;;13.80;99.90;;;;;;4959598;28;20055;-94
2021/07/14 04:54:04;;;;;;;12.38;5.28;;;13.80;99.90;;;;;;4957550;28;20031;-94
2021/07/14 04:56:41;;;;;;;12.65;4.93;;;13.80;99.90;;;;;;4957492;28;20061;-96
2021/07/14 04:59:09;;;;;;;8.52;4.88;;;13.80;99.90;;;;;;4957349;28;20033;-93
2021/07/14 05:01:35;;;;;;;12.57;5.43;;;13.80;99.90;;;;;;4957423;28;20027;-94
2021/07/14 05:04:04;;;;;;;7.50;4.55;;;13.80;99.90;;;;;;4957755;28;20041;-96
2021/07/14 05:06:30;;;;;;;8.63;4.68;;;13.80;99.90;;;;;;4960941;28;20031;-96
2021/07/14 05:08:58;;;;;;;12.00;4.50;;;13.80;99.90;;;;;;4962508;28;20039;-96
2021/07/14 05:11:27;;;;;;;9.63;4.50;;;13.80;99.90;;;;;;4959333;28;20031;-96
2021/07/14 05:13:54;;;;;;;9.20;4.93;;;13.80;99.90;;;;;;4957880;28;20512;-96
2021/07/14 05:16:20;;;;;;;10.07;4.78;;;13.80;99.90;;;;;;4957563;28;20070;-96
2021/07/14 05:18:49;;;;;;;8.00;4.80;;;13.80;99.90;;;;;;4957871;28;20117;-94
2021/07/14 05:21:14;;;;;;;9.32;5.07;;;13.80;99.90;;;;;;4957808;28;20035;-96
2021/07/14 05:23:43;;;;;;;5.72;3.45;;;13.90;99.90;;;;;;4957957;28;20041;-94
2021/07/14 05:26:11;;;;;;;7.57;4.90;;;13.80;99.90;;;;;;4957255;28;20122;-93
2021/07/14 05:28:37;;;;;;;7.88;3.97;;;13.90;99.90;;;;;;4956942;28;20191;-94
2021/07/14 05:31:03;;;;;;;7.60;4.60;;;13.90;99.90;;;;;;4958387;28;20055;-94
2021/07/14 05:33:28;;;;;;;8.07;4.45;;;13.90;99.90;;;;;;4958111;28;20026;-96
2021/07/14 05:35:56;;;;;;;7.63;4.55;;;13.90;99.90;;;;;;4959652;28;20035;-96
2021/07/14 05:38:22;;;;;;;7.07;4.28;;;13.90;99.90;;;;;;4964093;28;20078;-95
2021/07/14 05:40:52;;;;;;;7.88;4.05;;;13.90;99.90;;;;;;4970151;28;20035;-96
2021/07/14 05:43:18;;;;;;;9.37;4.50;;;14.00;99.90;;;;;;4971079;28;20058;-94
2021/07/14 05:45:45;;;;;;;6.57;3.90;;;14.00;99.90;;;;;;4974734;28;20500;-95
2021/07/14 05:48:12;;;;;;;9.93;5.00;;;14.00;99.90;;;;;;4975455;28;20134;-96
2021/07/14 05:50:40;;;;;;;8.90;4.20;;;14.00;99.90;;;;;;4974032;28;20047;-95
2021/07/14 05:53:09;;;;;;;6.32;3.78;;;14.10;99.90;;;;;;4970248;28;20030;-95
2021/07/14 05:55:41;;;;;;;6.53;3.90;;;14.10;99.90;;;;;;4968104;28;20038;-96
2021/07/14 05:58:08;;;;;;;5.10;3.72;;;14.10;99.90;;;;;;4967213;28;20030;-95
2021/07/14 06:00:37;;;;;;;8.38;3.60;;;14.20;99.90;;;;;;4963439;28;20026;-96
2021/07/14 06:03:11;;;;;;;4.75;3.60;;;14.20;99.90;;;;;;4970807;28;20560;-96
2021/07/14 06:05:43;;;;;;;4.00;3.42;;;14.30;99.90;;;;;;4976305;28;20114;-96
2021/07/14 06:08:09;;;;;;;6.82;3.72;;;14.30;99.90;;;;;;4953705;28;20062;-96
2021/07/14 06:10:38;;;;;;;8.10;3.97;;;14.40;99.90;;;;;;5090376;23;20477;-92
2021/07/14 06:13:04;;;;;;;6.28;3.80;;;14.40;99.90;;;;;;4931927;29;20062;-92
2021/07/14 06:15:32;;;;;;;8.38;3.75;;;14.50;99.90;;;;;;4931502;29;20070;-93
2021/07/14 06:17:58;;;;;;;5.85;3.50;;;14.50;99.90;;;;;;4930296;29;20027;-92
2021/07/14 06:20:27;;;;;;;8.23;4.25;;;14.60;99.90;;;;;;4932571;29;20027;-94
2021/07/14 06:23:01;;;;;;;9.07;4.10;;;14.70;99.90;;;;;;4932284;29;20076;-93
2021/07/14 06:25:29;;;;;;;6.55;4.30;;;14.80;99.90;;;;;;4932203;29;20036;-93
2021/07/14 06:28:05;;;;;;;8.32;4.55;;;14.80;99.90;;;;;;4931536;29;20026;-94
2021/07/14 06:30:32;;;;;;;5.68;3.65;;;14.90;99.90;;;;;;4934479;29;20028;-93
2021/07/14 06:33:01;;;;;;;7.22;3.90;;;14.90;99.90;;;;;;4928591;29;20046;-94
2021/07/14 06:35:27;;;;;;;7.00;4.28;;;15.00;99.90;;;;;;4934084;29;20067;-93
2021/07/14 06:37:53;;;;;;;6.22;3.75;;;15.00;99.90;;;;;;4933429;29;20055;-92
2021/07/14 06:40:22;;;;;;;5.75;3.78;;;15.10;99.90;;;;;;4931333;29;20023;-93
2021/07/14 06:42:49;;;;;;;8.02;3.65;;;15.20;99.90;;;;;;4933716;29;20034;-94
2021/07/14 06:45:15;;;;;;;6.75;4.00;;;15.20;99.90;;;;;;4932355;29;20026;-93
2021/07/14 06:47:41;;;;;;;5.88;4.25;;;15.30;99.90;;;;;;4927319;29;20064;-93
2021/07/14 06:50:12;;;;;;;6.50;3.83;;;15.30;99.90;;;;;;4915333;29;20027;-92
2021/07/14 06:52:42;;;;;;;4.50;3.33;;;15.40;99.90;;;;;;4916484;29;20486;-93
2021/07/14 06:55:10;;;;;;;5.65;3.70;;;15.50;99.90;;;;;;4918511;29;20043;-93
2021/07/14 06:57:36;;;;;;;4.53;3.15;;;15.60;99.90;;;;;;4907728;29;20020;-94
2021/07/14 07:00:06;;;;;;;9.65;3.75;;;15.70;99.90;;;;;;4911576;29;20028;-93
2021/07/14 07:02:31;;;;;;;6.53;4.13;;;15.70;99.90;;;;;;4915215;29;20028;-93
2021/07/14 07:04:57;;;;;;;5.53;3.50;;;15.80;99.90;;;;;;4918433;29;20371;-93
2021/07/14 07:07:23;;;;;;;8.23;3.50;;;15.80;99.90;;;;;;4906646;29;20028;-93
2021/07/14 07:09:48;;;;;;;5.70;3.33;;;15.90;99.90;;;;;;4906813;29;20580;-95
2021/07/14 07:12:14;;;;;;;8.23;3.92;;;16.00;99.90;;;;;;4910203;29;20482;-96
2021/07/14 07:14:43;;;;;;;4.40;3.28;;;16.10;99.90;;;;;;4906617;29;20423;-94
2021/07/14 07:17:09;;;;;;;9.00;3.70;;;16.20;99.90;;;;;;4907092;29;20120;-94
2021/07/14 07:19:35;;;;;;;5.72;3.63;;;16.10;99.90;;;;;;4922488;29;20048;-96
2021/07/14 07:27:36;;;;;;;7.82;3.80;;;16.30;99.90;;;;;;4987159;28;20052;-95
2021/07/14 07:30:07;;;;;;;4.50;3.45;;;16.30;99.90;;;;;;4980631;28;20037;-94
2021/07/14 07:32:33;;;;;;;;;;;16.40;99.90;;;;;;4985055;28;20006;-95
2021/07/14 07:34:58;;;;;;;5.28;2.97;;;16.50;99.90;;;;;;4978251;28;20099;-96
2021/07/14 07:37:24;;;;;;;6.45;3.50;;;16.60;99.90;;;;;;4965230;28;20033;-93
2021/07/14 07:39:51;;;;;;;5.30;3.50;;;16.70;99.90;;;;;;4975947;28;20440;-93
2021/07/14 07:42:17;;;;;;;6.20;3.90;;;16.80;99.90;;;;;;4961847;28;20479;-96
2021/07/14 07:44:43;;;;;;;5.72;3.55;;;17.00;99.90;;;;;;4960459;28;20045;-95
2021/07/14 07:47:09;;;;;;;6.80;3.53;;;17.10;99.90;;;;;;4960030;28;20030;-96
2021/07/14 07:49:35;;;;;;;5.18;3.40;;;17.20;99.90;;;;;;4968104;28;20081;-96
2021/07/14 07:52:03;;;;;;;8.20;3.58;;;17.30;99.90;;;;;;4964017;28;20026;-95
2021/07/14 07:54:29;;;;;;;5.95;3.20;;;17.40;99.90;;;;;;4977880;28;20033;-96
2021/07/14 07:56:55;;;;;;;4.53;3.33;;;17.60;99.90;;;;;;4960991;28;20086;-96
2021/07/14 07:59:21;;;;;;;6.13;3.10;;;17.70;99.90;;;;;;4961340;28;20074;-94
2021/07/14 08:01:46;;;;;;;3.92;3.20;;;17.80;99.90;;;;;;4962991;28;20026;-96
2021/07/14 08:04:12;;;;;;;7.20;3.53;;;17.90;99.90;;;;;;4963261;28;20038;-95
2021/07/14 08:06:38;;;;;;;7.63;3.35;;;18.00;99.90;;;;;;4967801;28;20491;-96
2021/07/14 08:09:06;;;;;;;5.03;3.38;;;18.00;99.90;;;;;;4966289;28;20397;-96
2021/07/14 08:11:40;;;;;;;6.03;3.58;;;18.00;99.90;;;;;;4963878;28;20476;-96
2021/07/14 08:14:10;;;;;;;4.22;3.58;;;18.00;99.90;;;;;;4964680;28;20030;-96
2021/07/14 08:16:36;;;;;;;4.60;3.75;;;18.10;99.90;;;;;;4960046;28;20023;-95
2021/07/14 08:19:02;;;;;;;4.55;3.08;;;18.10;99.90;;;;;;4959534;28;20366;-96
2021/07/14 08:21:28;;;;;;;5.55;3.53;;;18.10;99.90;;;;;;4960794;28;20027;-95
2021/07/14 08:23:54;;;;;;;6.40;3.40;;;18.30;99.90;;;;;;4964511;28;20046;-95
2021/07/14 08:26:20;;;;;;;8.18;3.25;;;18.30;99.90;;;;;;4965266;28;20050;-96
2021/07/14 08:28:46;;;;;;;5.22;3.42;;;18.30;99.90;;;;;;4979677;28;20081;-95
2021/07/14 08:31:15;;;;;;;5.03;3.28;;;18.30;99.90;;;;;;4976396;28;20035;-95
2021/07/14 08:33:41;;;;;;;5.43;3.30;;;18.40;99.90;;;;;;4966306;28;20114;-95
2021/07/14 08:36:06;;;;;;;5.30;2.85;;;18.50;99.90;;;;;;4979275;28;20027;-95
2021/07/14 08:38:32;;;;;;;6.38;3.08;;;18.60;99.90;;;;;;4979793;28;20035;-96
2021/07/14 08:41:07;;;;;;;3.97;2.90;;;18.60;99.90;;;;;;4972377;28;20023;-96
2021/07/14 08:43:36;;;;;;;4.90;3.22;;;18.70;99.90;;;;;;4970484;28;20042;-96
2021/07/14 08:46:12;;;;;;;4.38;2.42;;;18.60;99.90;;;;;;4976058;28;20030;-95
2021/07/14 08:48:39;;;;;;;5.90;3.58;;;18.60;99.90;;;;;;4978483;28;20023;-95
2021/07/14 08:51:06;;;;;;;4.57;2.72;;;18.60;99.90;;;;;;4961457;28;20038;-95
2021/07/14 08:53:33;;;;;;;8.43;2.97;;;18.60;99.90;;;;;;4961266;28;20023;-95
2021/07/14 08:56:06;;;;;;;4.93;2.75;;;18.50;99.90;;;;;;4960519;28;20122;-95
2021/07/14 08:58:40;;;;;;;6.50;2.80;;;18.50;99.90;;;;;;4962859;28;20047;-95
2021/07/14 09:01:11;;;;;;;4.90;3.60;;;18.50;99.90;;;;;;4960190;28;20082;-96
2021/07/14 09:03:53;;;;;;;5.38;2.63;;;18.40;99.90;;;;;;4959470;28;20030;-95
2021/07/14 09:06:22;;;;;;;2.92;2.30;;;18.50;99.90;;;;;;4962119;28;20584;-95
2021/07/14 09:08:55;;;;;;;4.72;2.78;;;18.50;99.90;;;;;;4965727;28;20033;-96
2021/07/14 09:11:52;;;;;;;3.47;2.33;;;18.70;99.90;;;;;;4966677;28;20042;-95
2021/07/14 09:14:44;;;;;;;3.88;2.90;;;18.80;99.90;;;;;;4978118;28;20041;-95
2021/07/14 09:18:08;;;;;;;4.32;2.50;;;19.00;99.90;;;;;;4977896;28;20038;-96
2021/07/14 10:04:09;;;;;;;;;;;;;;;;;;;;;
2021/07/14 10:06:36;;;;;;;2.55;1.70;;;21.70;93.20;;;;;;4772096;30;20061;-95
2021/07/14 10:09:04;;;;;;;3.92;2.03;;;21.90;92.50;;;;;;4757474;30;20427;-95
2021/07/14 10:11:39;;;;;;;5.05;1.88;;;22.10;92.20;;;;;;4773742;30;20047;-96
2021/07/14 10:15:01;;;;;;;5.60;2.03;;;22.30;91.80;;;;;;4780366;30;20035;-95
2021/07/14 10:18:09;;;;;;;3.33;1.85;;;22.30;91.30;;;;;;4781698;29;20060;-96
2021/07/14 10:20:52;;;;;;;3.75;1.90;;;22.30;91.10;;;;;;4910413;28;20507;-95
2021/07/14 10:24:12;;;;;;;4.15;2.08;;;22.30;90.10;;;;;;4991830;28;20055;-96
2021/07/14 10:26:48;;;;;;;7.03;2.20;;;22.30;89.80;;;;;;4980435;28;20180;-95
2021/07/14 10:29:32;;;;;;;3.85;1.85;;;22.50;89.30;;;;;;4978117;28;20269;-95
2021/07/14 10:32:01;;;;;;;6.60;2.30;;;22.70;87.90;;;;;;4974940;28;20022;-93
2021/07/14 10:34:27;;;;;;;4.35;1.95;;;22.80;87.30;;;;;;4988529;28;20030;-94
2021/07/14 10:36:54;;;;;;;2.20;1.50;;;23.00;85.50;;;;;;4964492;28;20031;-95
2021/07/14 10:39:25;;;;;;;3.92;1.90;;;23.10;84.70;;;;;;4963619;28;20045;-95
2021/07/14 10:41:53;;;;;;;5.50;1.80;;;23.20;83.80;;;;;;4964286;28;20138;-96
2021/07/14 10:44:19;;;;;;;3.30;1.83;;;23.40;83.40;;;;;;4968374;28;20066;-95
2021/07/14 10:46:46;;;;;;;4.22;1.77;;;23.40;81.70;;;;;;4966937;28;20030;-96
2021/07/14 10:49:12;;;;;;;5.07;1.90;;;23.20;81.00;;;;;;4964379;28;20023;-94
2021/07/14 10:51:39;;;;;;;3.15;1.60;;;23.20;80.80;;;;;;4964189;28;20117;-95
2021/07/14 10:54:10;;;;;;;3.90;1.85;;;23.10;80.90;;;;;;4962219;28;20042;-95
2021/07/14 10:56:51;;;;;;;3.15;1.95;;;23.10;80.60;;;;;;4961883;28;20286;-96
2021/07/14 11:10:40;;;;;;;2.05;1.67;;;23.60;79.40;;;;;;5256574;23;20059;-95
2021/07/14 11:13:29;;;;;;;3.22;1.88;;;23.70;79.30;;;;;;4964305;28;20034;-94
2021/07/14 11:16:00;;;;;;;3.92;1.83;;;23.70;78.70;;;;;;4969332;28;20022;-96
2021/07/14 11:18:29;;;;;;;;;;;23.70;77.20;;;;;;4970545;28;20183;-96
2021/07/14 11:20:57;;;;;;;7.28;1.60;;;23.80;77.00;;;;;;4970481;28;19913;-96
2021/07/14 11:23:28;;;;;;;4.78;1.73;;;23.70;77.00;;;;;;4956694;28;20062;-96
2021/07/14 11:25:56;;;;;;;3.42;1.50;;;23.60;77.10;;;;;;4961306;28;20030;-96
2021/07/14 11:28:23;;;;;;;7.60;1.63;;;23.70;77.10;;;;;;4979350;28;20019;-96
2021/07/14 11:31:23;;;;;;;4.18;1.83;;;23.80;76.50;;;;;;4964891;28;20038;-96
2021/07/14 11:42:20;;;;;;;2.60;1.85;;;23.70;76.30;;;;;;5954385;23;20093;-94
2021/07/14 11:44:53;;;;;;;4.07;1.77;;;23.90;75.20;;;;;;4971205;28;20098;-95
2021/07/14 11:47:38;;;;;;;3.53;1.85;;;24.10;74.90;;;;;;4971198;28;20075;-95
2021/07/14 11:50:13;;;;;;;4.10;1.77;;;24.30;74.30;;;;;;4974185;28;20030;-96
2021/07/14 11:52:46;;;;;;;2.80;1.50;;;24.30;73.90;;;;;;4973270;28;20030;-96
2021/07/14 11:55:24;;;;;;;4.85;1.70;;;24.20;73.50;;;;;;4964420;28;20135;-95
2021/07/14 11:58:42;;;;;;;3.53;2.03;;;24.20;73.40;;;;;;4985449;28;20027;-96
2021/07/14 12:01:31;;;;;;;3.08;1.80;;;24.30;73.10;;;;;;4906731;29;20044;-95
2021/07/14 12:06:34;;;;;;;2.55;1.60;;;24.40;72.70;;;;;;4913744;29;20033;-95
2021/07/14 12:09:20;;;;;;;4.18;1.67;;;24.40;72.30;;;;;;4899064;29;20154;-96
2021/07/14 12:12:05;;;;;;;7.57;1.70;;;24.20;72.30;;;;;;4915741;29;20033;-96
2021/07/14 12:35:17;;;;;;;1.67;1.52;;;24.60;70.20;;;;;;6116728;23;20119;-95
2021/07/14 12:38:25;;;;;;;2.30;1.35;;;24.90;70.10;;;;;;4986597;28;20114;-96
2021/07/14 12:40:51;;;;;;;3.67;1.75;;;25.00;69.70;;;;;;4981995;28;20026;-96
2021/07/14 12:43:21;;;;;;;3.88;1.77;;;25.20;69.40;;;;;;4968374;28;20039;-96
2021/07/14 12:45:48;;;;;;;3.05;1.48;;;25.30;69.00;;;;;;4976316;28;20091;-96
2021/07/14 12:48:28;;;;;;;1.77;1.50;;;25.60;69.60;;;;;;4970137;29;20062;-96
2021/07/14 12:53:29;;;;;;;3.63;1.40;;;26.10;67.80;;;;;;5371426;23;20058;-95
2021/07/14 12:56:02;;;;;;;2.72;1.80;;;26.10;67.80;;;;;;4976481;28;20097;-96
2021/07/14 12:58:29;;;;;;;3.15;1.83;;;26.20;67.40;;;;;;4974418;28;20022;-96
2021/07/14 13:01:09;;;;;;;1.67;1.52;;;26.20;67.20;;;;;;5088091;23;20847;-96
2021/07/14 13:03:39;;;;;;;2.17;1.77;;;26.40;66.70;;;;;;4988291;28;20062;-95
2021/07/14 13:06:08;;;;;;;1.90;1.50;;;26.50;65.90;;;;;;4975888;28;20077;-96
2021/07/14 13:08:37;;;;;;;4.00;1.58;;;26.50;66.10;;;;;;4992992;28;20074;-95
2021/07/14 13:16:24;;;;;;;2.53;1.83;;;26.20;65.20;;;;;;6072186;23;20012;-96
2021/07/14 13:18:54;;;;;;;5.88;1.67;;;26.10;65.00;;;;;;4974448;28;20117;-96
2021/07/14 13:21:40;;;;;;;3.45;1.60;;;26.10;65.10;;;;;;4970837;28;20061;-96
2021/07/14 13:24:32;;;;;;;4.45;1.13;;;26.10;65.40;;;;;;5010982;23;20107;-96
2021/07/14 14:30:53;;;;;;;3.03;1.70;;;27.80;59.50;;;;;;5036873;23;20122;-96
2021/07/14 14:33:19;;;;;;;2.20;1.40;;;27.80;59.60;;;;;;4980143;28;20050;-96
2021/07/14 14:35:51;;;;;;;1.77;1.30;;;27.80;59.70;;;;;;4973427;28;20123;-96
2021/07/14 14:40:52;;;;;;;2.20;1.05;;;27.60;59.00;;;;;;5389210;23;20082;-96
2021/07/14 14:45:57;;;;;;;1.98;1.85;;;27.30;58.70;;;;;;5435341;23;20090;-96
2021/07/14 14:48:24;;;;;;;2.13;1.48;;;27.30;59.10;;;;;;4979002;28;20035;-96
2021/07/14 14:50:55;;;;;;;2.92;1.85;;;27.40;59.70;;;;;;5024034;23;20868;-96
2021/07/14 14:53:21;;;;;;;1.55;1.40;;;27.50;59.80;;;;;;5028822;23;20146;-95
2021/07/14 14:55:50;;;;;;;2.58;1.60;;;27.60;60.00;;;;;;4987170;28;20054;-95
2021/07/14 14:58:22;;;;;;;3.45;1.40;;;27.60;59.70;;;;;;4991048;28;20035;-96
2021/07/14 16:01:39;;;;;;;3.50;1.63;;;26.80;59.40;;;;;;5275186;23;20142;-95
2021/07/14 16:04:08;;;;;;;2.10;1.60;;;26.70;59.60;;;;;;4968821;28;20027;-96
2021/07/14 16:06:34;;;;;;;4.20;1.40;;;26.60;59.70;;;;;;4967501;28;20027;-95
2021/07/14 16:12:44;;;;;;;5.70;1.80;;;26.40;59.60;;;;;;5022143;23;20275;-96
2021/07/14 16:16:12;;;;;;;3.42;1.90;;;26.30;59.90;;;;;;4991774;28;20031;-96
2021/07/14 16:22:31;;;;;;;;;;;;;;;;;;;;;
2021/07/14 16:25:30;;;;;;;5.15;1.70;;;25.70;61.20;;;;;;4894982;29;20072;-96
2021/07/14 16:39:25;;;;;;;2.92;1.85;;;25.10;62.50;;;;;;5566362;23;20054;-96
2021/07/14 16:42:20;;;;;;;3.75;1.92;;;24.90;63.30;;;;;;4968872;28;20043;-96
2021/07/14 16:45:03;;;;;;;3.30;1.67;;;24.90;63.90;;;;;;4969163;28;20047;-96
2021/07/14 16:47:53;;;;;;;3.25;1.83;;;24.80;64.30;;;;;;4970051;28;20500;-95
2021/07/14 16:50:52;;;;;;;4.10;1.77;;;24.80;64.40;;;;;;4986252;28;20035;-96
2021/07/14 16:54:16;;;;;;;2.33;1.95;;;24.70;64.60;;;;;;4903875;29;20164;-96
2021/07/14 17:01:57;;;;;;;2.10;1.60;;;24.50;65.70;;;;;;4885626;29;20025;-96
2021/07/14 17:14:57;;;;;;;2.00;1.60;;;24.00;66.50;;;;;;4862031;29;20129;-96
2021/07/14 17:18:40;;;;;;;3.60;2.00;;;23.80;67.30;;;;;;4851793;29;20034;-94
2021/07/14 17:29:16;;;;;;;;;;;;;;;;;;;;;
2021/07/14 17:39:28;;;;;;;;;;;;;;;;;;;;;
2021/07/14 18:16:30;;;;;;;3.88;2.67;;;21.80;73.60;;;;;;5026910;23;20062;-95
2021/07/14 18:18:57;;;;;;;6.25;2.30;;;21.80;73.80;;;;;;4977592;28;20035;-96
2021/07/14 18:21:23;;;;;;;3.45;2.03;;;21.70;74.10;;;;;;4959603;28;20476;-95
2021/07/14 18:24:08;;;;;;;;;;;;;;;;;;;;;
2021/07/14 18:26:35;;;;;;;2.22;2.03;;;21.60;74.30;;;;;;4973612;28;20039;-96
2021/07/14 18:29:01;;;;;;;4.13;2.75;;;21.60;74.50;;;;;;4958605;28;20456;-96
2021/07/14 18:31:27;;;;;;;3.10;2.17;;;21.50;74.80;;;;;;4962950;28;20022;-94
2021/07/14 18:33:55;;;;;;;2.25;1.90;;;21.40;75.10;;;;;;4961944;28;20547;-96
2021/07/14 18:36:23;;;;;;;3.40;2.45;;;21.30;75.40;;;;;;4984186;23;20039;-95